<?xml version="1.0" encoding="UTF-8" standalone="no" ?>
<gpx xmlns="http://www.topografix.com/GPX/1/1" xmlns:xsi="http://www.w3.org/2001/XMLSchema-instance" xsi:schemaLocation="http://www.topografix.com/GPX/1/1 http://www.topografix.com/GPX/1/1/gpx.xsd" version="1.1" creator="VisuGPX - https://www.visugpx.com">
  <metadata>
    <name>15 km Marche</name>
    <desc><![CDATA[15 km marche - Maraîchine 14 05 2017 ]]></desc>
  </metadata>
  <trk>
    <name><![CDATA[OR-7027913--Coulon:2017-Maraichine-marche-15 km]]></name>
    <trkseg>
      <trkpt lat="46.32047" lon="-0.58841">
        <ele>5</ele>
        <time>2017-03-23T21:13:03Z</time>
      </trkpt>
      <trkpt lat="46.32011" lon="-0.58871">
        <ele>5</ele>
        <time>2017-03-23T21:15:03Z</time>
      </trkpt>
      <trkpt lat="46.31916" lon="-0.59112">
        <ele>5</ele>
        <time>2017-03-23T21:17:03Z</time>
      </trkpt>
      <trkpt lat="46.31872" lon="-0.59283">
        <ele>5</ele>
        <time>2017-03-23T21:19:03Z</time>
      </trkpt>
      <trkpt lat="46.31789" lon="-0.59438">
        <ele>5</ele>
        <time>2017-03-23T21:21:03Z</time>
      </trkpt>
      <trkpt lat="46.31727" lon="-0.59571">
        <ele>7</ele>
        <time>2017-03-23T21:23:03Z</time>
      </trkpt>
      <trkpt lat="46.31715" lon="-0.59695">
        <ele>6</ele>
        <time>2017-03-23T21:25:03Z</time>
      </trkpt>
      <trkpt lat="46.31676" lon="-0.59841">
        <ele>3</ele>
        <time>2017-03-23T21:27:03Z</time>
      </trkpt>
      <trkpt lat="46.31581" lon="-0.59953">
        <ele>6</ele>
        <time>2017-03-23T21:29:03Z</time>
      </trkpt>
      <trkpt lat="46.31492" lon="-0.6033">
        <ele>5</ele>
        <time>2017-03-23T21:31:03Z</time>
      </trkpt>
      <trkpt lat="46.31463" lon="-0.60657">
        <ele>5</ele>
        <time>2017-03-23T21:33:03Z</time>
      </trkpt>
      <trkpt lat="46.31481" lon="-0.60798">
        <ele>3</ele>
        <time>2017-03-23T21:35:03Z</time>
      </trkpt>
      <trkpt lat="46.3146" lon="-0.60854">
        <ele>4</ele>
        <time>2017-03-23T21:37:03Z</time>
      </trkpt>
      <trkpt lat="46.31291" lon="-0.61047">
        <ele>4</ele>
        <time>2017-03-23T21:39:03Z</time>
      </trkpt>
      <trkpt lat="46.31282" lon="-0.61137">
        <ele>5</ele>
        <time>2017-03-23T21:41:03Z</time>
      </trkpt>
      <trkpt lat="46.31315" lon="-0.61313">
        <ele>5</ele>
        <time>2017-03-23T21:43:03Z</time>
      </trkpt>
      <trkpt lat="46.31294" lon="-0.61416">
        <ele>4</ele>
        <time>2017-03-23T21:45:03Z</time>
      </trkpt>
      <trkpt lat="46.31196" lon="-0.61596">
        <ele>4</ele>
        <time>2017-03-23T21:47:03Z</time>
      </trkpt>
      <trkpt lat="46.3114" lon="-0.61648">
        <ele>4</ele>
        <time>2017-03-23T21:49:03Z</time>
      </trkpt>
      <trkpt lat="46.31086" lon="-0.61562">
        <ele>3</ele>
        <time>2017-03-23T21:51:03Z</time>
      </trkpt>
      <trkpt lat="46.31003" lon="-0.61777">
        <ele>7</ele>
        <time>2017-03-23T21:53:03Z</time>
      </trkpt>
      <trkpt lat="46.3095" lon="-0.62094">
        <ele>6</ele>
        <time>2017-03-23T21:55:03Z</time>
      </trkpt>
      <trkpt lat="46.30903" lon="-0.62038">
        <ele>6</ele>
        <time>2017-03-23T21:57:03Z</time>
      </trkpt>
      <trkpt lat="46.30665" lon="-0.62146">
        <ele>5</ele>
        <time>2017-03-23T21:59:03Z</time>
      </trkpt>
      <trkpt lat="46.30544" lon="-0.61699">
        <ele>5</ele>
        <time>2017-03-23T22:01:03Z</time>
      </trkpt>
      <trkpt lat="46.30431" lon="-0.61755">
        <ele>2</ele>
        <time>2017-03-23T22:03:03Z</time>
      </trkpt>
      <trkpt lat="46.302" lon="-0.61802">
        <ele>4</ele>
        <time>2017-03-23T22:05:03Z</time>
      </trkpt>
      <trkpt lat="46.30191" lon="-0.61871">
        <ele>4</ele>
        <time>2017-03-23T22:07:03Z</time>
      </trkpt>
      <trkpt lat="46.30164" lon="-0.61871">
        <ele>4</ele>
        <time>2017-03-23T22:09:03Z</time>
      </trkpt>
      <trkpt lat="46.30158" lon="-0.61794">
        <ele>4</ele>
        <time>2017-03-23T22:11:03Z</time>
      </trkpt>
      <trkpt lat="46.29823" lon="-0.61429">
        <ele>2</ele>
        <time>2017-03-23T22:13:03Z</time>
      </trkpt>
      <trkpt lat="46.29684" lon="-0.61455">
        <ele>4</ele>
        <time>2017-03-23T22:15:03Z</time>
      </trkpt>
      <trkpt lat="46.29687" lon="-0.61305">
        <ele>5</ele>
        <time>2017-03-23T22:17:03Z</time>
      </trkpt>
      <trkpt lat="46.29699" lon="-0.61081">
        <ele>7</ele>
        <time>2017-03-23T22:19:03Z</time>
      </trkpt>
      <trkpt lat="46.29723" lon="-0.60841">
        <ele>8</ele>
        <time>2017-03-23T22:21:03Z</time>
      </trkpt>
      <trkpt lat="46.30247" lon="-0.60657">
        <ele>4</ele>
        <time>2017-03-23T22:23:03Z</time>
      </trkpt>
      <trkpt lat="46.30326" lon="-0.60216">
        <ele>6</ele>
        <time>2017-03-23T22:25:03Z</time>
      </trkpt>
      <trkpt lat="46.30344" lon="-0.60151">
        <ele>6</ele>
        <time>2017-03-23T22:27:03Z</time>
      </trkpt>
      <trkpt lat="46.30098" lon="-0.60014">
        <ele>5</ele>
        <time>2017-03-23T22:29:03Z</time>
      </trkpt>
      <trkpt lat="46.30101" lon="-0.59871">
        <ele>4</ele>
        <time>2017-03-23T22:31:03Z</time>
      </trkpt>
      <trkpt lat="46.30039" lon="-0.59666">
        <ele>5</ele>
        <time>2017-03-23T22:33:03Z</time>
      </trkpt>
      <trkpt lat="46.29995" lon="-0.59462">
        <ele>6</ele>
        <time>2017-03-23T22:35:03Z</time>
      </trkpt>
      <trkpt lat="46.30038" lon="-0.59438">
        <ele>8</ele>
        <time>2017-03-23T22:37:03Z</time>
      </trkpt>
      <trkpt lat="46.30158" lon="-0.59399">
        <ele>8</ele>
        <time>2017-03-23T22:39:03Z</time>
      </trkpt>
      <trkpt lat="46.3018" lon="-0.59299">
        <ele>10</ele>
        <time>2017-03-23T22:41:03Z</time>
      </trkpt>
      <trkpt lat="46.30319" lon="-0.59343">
        <ele>8</ele>
        <time>2017-03-23T22:43:03Z</time>
      </trkpt>
      <trkpt lat="46.30429" lon="-0.59406">
        <ele>7</ele>
        <time>2017-03-23T22:45:03Z</time>
      </trkpt>
      <trkpt lat="46.30499" lon="-0.59352">
        <ele>9</ele>
        <time>2017-03-23T22:47:03Z</time>
      </trkpt>
      <trkpt lat="46.30571" lon="-0.59167">
        <ele>12</ele>
        <time>2017-03-23T22:49:03Z</time>
      </trkpt>
      <trkpt lat="46.306" lon="-0.58961">
        <ele>16</ele>
        <time>2017-03-23T22:51:03Z</time>
      </trkpt>
      <trkpt lat="46.30526" lon="-0.58751">
        <ele>11</ele>
        <time>2017-03-23T22:53:03Z</time>
      </trkpt>
      <trkpt lat="46.3047" lon="-0.58691">
        <ele>11</ele>
        <time>2017-03-23T22:55:03Z</time>
      </trkpt>
      <trkpt lat="46.30585" lon="-0.58609">
        <ele>4</ele>
        <time>2017-03-23T22:57:03Z</time>
      </trkpt>
      <trkpt lat="46.30719" lon="-0.58489">
        <ele>4</ele>
        <time>2017-03-23T22:59:03Z</time>
      </trkpt>
      <trkpt lat="46.30876" lon="-0.58176">
        <ele>4</ele>
        <time>2017-03-23T23:01:03Z</time>
      </trkpt>
      <trkpt lat="46.31072" lon="-0.57777">
        <ele>5</ele>
        <time>2017-03-23T23:03:03Z</time>
      </trkpt>
      <trkpt lat="46.3116" lon="-0.57721">
        <ele>6</ele>
        <time>2017-03-23T23:05:03Z</time>
      </trkpt>
      <trkpt lat="46.31694" lon="-0.57674">
        <ele>4</ele>
        <time>2017-03-23T23:07:03Z</time>
      </trkpt>
      <trkpt lat="46.31768" lon="-0.57691">
        <ele>4</ele>
        <time>2017-03-23T23:09:03Z</time>
      </trkpt>
      <trkpt lat="46.31881" lon="-0.57751">
        <ele>4</ele>
        <time>2017-03-23T23:11:03Z</time>
      </trkpt>
      <trkpt lat="46.31919" lon="-0.57687">
        <ele>4</ele>
        <time>2017-03-23T23:13:03Z</time>
      </trkpt>
      <trkpt lat="46.31976" lon="-0.57588">
        <ele>5</ele>
        <time>2017-03-23T23:15:03Z</time>
      </trkpt>
      <trkpt lat="46.32127" lon="-0.56944">
        <ele>4</ele>
        <time>2017-03-23T23:17:03Z</time>
      </trkpt>
      <trkpt lat="46.32213" lon="-0.56713">
        <ele>5</ele>
        <time>2017-03-23T23:19:03Z</time>
      </trkpt>
      <trkpt lat="46.3205" lon="-0.56382">
        <ele>8</ele>
        <time>2017-03-23T23:21:03Z</time>
      </trkpt>
      <trkpt lat="46.31946" lon="-0.56133">
        <ele>9</ele>
        <time>2017-03-23T23:23:03Z</time>
      </trkpt>
      <trkpt lat="46.31958" lon="-0.5603">
        <ele>9</ele>
        <time>2017-03-23T23:25:03Z</time>
      </trkpt>
      <trkpt lat="46.31928" lon="-0.55884">
        <ele>10</ele>
        <time>2017-03-23T23:27:03Z</time>
      </trkpt>
      <trkpt lat="46.32121" lon="-0.55794">
        <ele>9</ele>
        <time>2017-03-23T23:29:03Z</time>
      </trkpt>
      <trkpt lat="46.32316" lon="-0.55738">
        <ele>5</ele>
        <time>2017-03-23T23:31:03Z</time>
      </trkpt>
      <trkpt lat="46.32385" lon="-0.55794">
        <ele>5</ele>
        <time>2017-03-23T23:33:03Z</time>
      </trkpt>
      <trkpt lat="46.32456" lon="-0.55751">
        <ele>7</ele>
        <time>2017-03-23T23:35:03Z</time>
      </trkpt>
      <trkpt lat="46.32521" lon="-0.55799">
        <ele>6</ele>
        <time>2017-03-23T23:37:03Z</time>
      </trkpt>
      <trkpt lat="46.32642" lon="-0.5582">
        <ele>8</ele>
        <time>2017-03-23T23:39:03Z</time>
      </trkpt>
      <trkpt lat="46.32767" lon="-0.56193">
        <ele>3</ele>
        <time>2017-03-23T23:41:03Z</time>
      </trkpt>
      <trkpt lat="46.32764" lon="-0.56399">
        <ele>3</ele>
        <time>2017-03-23T23:43:03Z</time>
      </trkpt>
      <trkpt lat="46.32687" lon="-0.56798">
        <ele>4</ele>
        <time>2017-03-23T23:45:03Z</time>
      </trkpt>
      <trkpt lat="46.32678" lon="-0.57107">
        <ele>4</ele>
        <time>2017-03-23T23:47:03Z</time>
      </trkpt>
      <trkpt lat="46.32527" lon="-0.57464">
        <ele>6</ele>
        <time>2017-03-23T23:49:03Z</time>
      </trkpt>
      <trkpt lat="46.3231" lon="-0.57953">
        <ele>6</ele>
        <time>2017-03-23T23:51:03Z</time>
      </trkpt>
      <trkpt lat="46.3207" lon="-0.58498">
        <ele>4</ele>
        <time>2017-03-23T23:53:03Z</time>
      </trkpt>
      <trkpt lat="46.32038" lon="-0.58678">
        <ele>6</ele>
        <time>2017-03-23T23:55:03Z</time>
      </trkpt>
      <trkpt lat="46.3207" lon="-0.58708">
        <ele>5</ele>
        <time>2017-03-23T23:57:03Z</time>
      </trkpt>
      <trkpt lat="46.32026" lon="-0.5882">
        <ele>5</ele>
        <time>2017-03-23T23:59:03Z</time>
      </trkpt>
    </trkseg>
  </trk>
</gpx>